createdAt,value
2023-01-21T00:01:02.965Z,18.70
2023-01-21T00:03:30.502Z,18.70
2023-01-21T00:06:00.717Z,18.70
2023-01-21T00:08:28.284Z,18.70
2023-01-21T00:10:55.778Z,18.70
2023-01-21T00:13:24.153Z,18.80
2023-01-21T00:15:54.287Z,18.80
2023-01-21T00:18:21.773Z,18.80
2023-01-21T00:20:49.304Z,18.80
2023-01-21T00:23:17.082Z,18.80
2023-01-21T00:25:45.567Z,18.80
2023-01-21T00:28:14.563Z,18.80
2023-01-21T00:30:42.105Z,18.80
2023-01-21T00:33:09.833Z,18.80
2023-01-21T00:35:37.723Z,18.90
2023-01-21T00:38:06.575Z,18.90
2023-01-21T00:40:35.720Z,18.90
2023-01-21T00:43:03.328Z,18.90
2023-01-21T00:45:30.821Z,19.00
2023-01-21T00:47:59.118Z,18.90
2023-01-21T00:50:27.444Z,19.00
2023-01-21T00:52:55.043Z,19.00
2023-01-21T00:55:23.119Z,19.10
2023-01-21T00:57:50.977Z,19.10
2023-01-21T01:00:20.519Z,19.20
2023-01-21T01:02:48.980Z,19.20
2023-01-21T01:05:16.745Z,19.30
2023-01-21T01:07:46.613Z,19.30
2023-01-21T01:10:15.210Z,19.30
2023-01-21T01:12:43.384Z,19.40
2023-01-21T01:15:11.649Z,19.40
2023-01-21T01:17:39.265Z,19.50
2023-01-21T01:20:07.207Z,19.50
2023-01-21T01:22:35.742Z,19.50
2023-01-21T01:25:03.717Z,19.50
2023-01-21T01:27:31.894Z,19.50
2023-01-21T01:30:00.657Z,19.60
2023-01-21T01:32:28.668Z,19.70
2023-01-21T01:34:56.364Z,19.70
2023-01-21T01:37:26.028Z,19.70
2023-01-21T01:39:53.865Z,19.80
2023-01-21T01:42:27.841Z,19.80
2023-01-21T01:45:15.133Z,19.90
2023-01-21T01:47:45.188Z,20.00
2023-01-21T01:50:17.548Z,20.00
2023-01-21T01:52:45.538Z,20.10
2023-01-21T01:55:16.780Z,20.10
2023-01-21T01:57:48.408Z,20.20
2023-01-21T02:00:17.086Z,20.20
2023-01-21T02:03:05.957Z,20.20
2023-01-21T02:05:37.819Z,20.20
2023-01-21T02:08:06.179Z,20.30
2023-01-21T02:10:34.771Z,20.30
2023-01-21T02:13:03.537Z,20.40
2023-01-21T02:15:46.591Z,20.40
2023-01-21T02:18:21.432Z,20.40
2023-01-21T02:20:52.557Z,20.50
2023-01-21T02:23:23.593Z,20.60
2023-01-21T02:25:54.491Z,20.60
2023-01-21T02:28:23.123Z,20.70
2023-01-21T02:31:06.935Z,20.70
2023-01-21T02:33:39.558Z,20.80
2023-01-21T02:36:17.685Z,20.90
2023-01-21T02:38:49.335Z,20.90
2023-01-21T02:41:42.523Z,21.00
2023-01-21T02:44:25.445Z,21.10
2023-01-21T02:47:03.990Z,21.10
2023-01-21T02:49:50.862Z,21.20
2023-01-21T02:52:22.108Z,21.30
2023-01-21T02:54:52.756Z,21.30
2023-01-21T02:57:35.386Z,21.40
2023-01-21T03:00:07.705Z,21.40
2023-01-21T03:03:00.622Z,21.50
2023-01-21T03:05:47.386Z,21.60
2023-01-21T03:08:31.219Z,21.60
2023-01-21T03:11:14.062Z,21.60
2023-01-21T03:14:16.428Z,21.70
2023-01-21T03:17:04.345Z,21.80
2023-01-21T03:19:35.228Z,21.90
2023-01-21T03:22:05.510Z,22.00
2023-01-21T03:24:34.398Z,22.00
2023-01-21T03:27:03.642Z,22.10
2023-01-21T03:29:34.704Z,22.20
2023-01-21T03:32:05.781Z,22.20
2023-01-21T03:34:39.742Z,22.30
2023-01-21T03:37:07.838Z,22.30
2023-01-21T03:39:41.411Z,22.30
2023-01-21T03:42:12.575Z,22.40
2023-01-21T03:44:41.453Z,22.40
2023-01-21T03:47:33.633Z,22.50
2023-01-21T03:50:03.317Z,22.60
2023-01-21T03:52:31.549Z,22.60
2023-01-21T03:55:02.367Z,22.70
2023-01-21T03:57:31.044Z,22.80
2023-01-21T04:00:02.114Z,22.80
2023-01-21T04:02:30.705Z,22.90
2023-01-21T04:04:59.653Z,23.00
2023-01-21T04:07:28.165Z,23.00
2023-01-21T04:10:03.105Z,23.10
2023-01-21T04:12:33.748Z,23.20
2023-01-21T04:15:04.233Z,23.20
2023-01-21T04:17:33.216Z,23.20
2023-01-21T04:20:01.301Z,23.20
2023-01-21T04:22:30.752Z,23.30
2023-01-21T04:24:59.162Z,23.40
2023-01-21T04:27:29.720Z,23.50
2023-01-21T04:29:59.448Z,23.50
2023-01-21T04:32:27.720Z,23.50
2023-01-21T04:34:56.397Z,23.60
2023-01-21T04:37:25.812Z,23.60
2023-01-21T04:39:53.508Z,23.70
2023-01-21T04:42:21.791Z,23.80
2023-01-21T04:44:50.544Z,23.90
2023-01-21T04:47:18.164Z,24.00
2023-01-21T04:49:49.820Z,24.00
2023-01-21T04:52:17.513Z,24.10
2023-01-21T04:54:46.225Z,24.20
2023-01-21T04:57:14.084Z,24.30
2023-01-21T04:59:42.057Z,24.30
2023-01-21T05:02:10.900Z,24.40
2023-01-21T05:04:38.572Z,24.40
2023-01-21T05:07:06.336Z,24.40
2023-01-21T05:09:33.880Z,24.40
2023-01-21T05:12:01.653Z,24.40
2023-01-21T05:14:33.543Z,24.50
2023-01-21T05:17:04.940Z,24.40
2023-01-21T05:19:34.055Z,24.50
2023-01-21T05:22:04.430Z,24.60
2023-01-21T05:24:35.925Z,24.60
2023-01-21T05:27:03.512Z,24.60
2023-01-21T05:29:31.264Z,24.80
2023-01-21T05:32:01.393Z,24.80
2023-01-21T05:34:29.312Z,24.90
2023-01-21T05:36:57.011Z,24.90
2023-01-21T05:39:24.610Z,25.00
2023-01-21T05:41:55.754Z,25.00
2023-01-21T05:44:23.758Z,25.10
2023-01-21T05:46:51.794Z,25.10
2023-01-21T05:49:20.793Z,25.10
2023-01-21T05:51:48.501Z,25.20
2023-01-21T05:54:16.096Z,25.20
2023-01-21T05:56:44.396Z,25.40
2023-01-21T05:59:12.088Z,25.40
2023-01-21T06:01:39.926Z,25.40
2023-01-21T06:04:08.034Z,25.50
2023-01-21T06:06:38.289Z,25.60
2023-01-21T06:09:06.715Z,25.70
2023-01-21T06:11:34.333Z,25.70
2023-01-21T06:14:02.774Z,25.70
2023-01-21T06:16:30.405Z,25.70
2023-01-21T06:18:58.861Z,25.70
2023-01-21T06:21:26.890Z,25.80
2023-01-21T06:23:54.705Z,25.90
2023-01-21T06:26:22.468Z,25.90
2023-01-21T06:28:50.034Z,26.00
2023-01-21T06:31:17.984Z,26.00
2023-01-21T06:33:45.993Z,26.00
2023-01-21T06:36:15.415Z,26.00
2023-01-21T06:38:43.060Z,26.00
2023-01-21T06:41:11.217Z,26.10
2023-01-21T06:43:38.776Z,26.10
2023-01-21T06:46:07.703Z,26.10
2023-01-21T06:48:36.774Z,26.20
2023-01-21T06:51:05.648Z,26.20
2023-01-21T06:53:33.784Z,26.30
2023-01-21T06:56:02.699Z,26.20
2023-01-21T06:58:31.428Z,26.30
2023-01-21T07:00:59.364Z,26.20
2023-01-21T07:03:27.188Z,26.30
2023-01-21T07:05:55.862Z,26.30
2023-01-21T07:08:25.531Z,26.40
2023-01-21T07:10:55.746Z,26.40
2023-01-21T07:13:23.717Z,26.50
2023-01-21T07:15:51.569Z,26.50
2023-01-21T07:18:19.742Z,26.50
2023-01-21T07:20:48.516Z,26.50
2023-01-21T07:23:16.128Z,26.50
2023-01-21T07:25:45.939Z,26.50
2023-01-21T07:28:14.428Z,26.50
2023-01-21T07:30:42.437Z,26.50
2023-01-21T07:33:10.621Z,26.50
2023-01-21T07:35:39.479Z,26.60
2023-01-21T07:38:07.355Z,26.60
2023-01-21T07:40:35.710Z,26.60
2023-01-21T07:43:03.584Z,26.60
2023-01-21T07:45:31.199Z,26.60
2023-01-21T07:47:59.396Z,26.60
2023-01-21T07:50:30.311Z,26.70
2023-01-21T07:53:02.483Z,26.70
2023-01-21T07:55:30.667Z,26.70
2023-01-21T07:58:01.495Z,26.70
2023-01-21T08:00:29.637Z,26.70
2023-01-21T08:02:57.844Z,26.70
2023-01-21T08:05:26.134Z,26.70
2023-01-21T08:07:57.292Z,26.80
2023-01-21T08:10:26.133Z,26.90
2023-01-21T08:12:53.765Z,26.90
2023-01-21T08:15:21.890Z,26.90
2023-01-21T08:17:49.622Z,26.90
2023-01-21T08:20:17.439Z,26.90
2023-01-21T08:22:48.298Z,27.00
2023-01-21T08:25:19.368Z,27.00
2023-01-21T08:27:50.267Z,27.10
2023-01-21T08:30:19.774Z,27.00
2023-01-21T08:32:47.704Z,27.00
2023-01-21T08:35:16.875Z,27.10
2023-01-21T08:37:47.657Z,27.00
2023-01-21T08:40:15.345Z,27.00
2023-01-21T08:42:42.996Z,27.00
2023-01-21T08:45:11.547Z,27.10
2023-01-21T08:47:39.640Z,27.10
2023-01-21T08:50:08.224Z,27.10
2023-01-21T08:52:35.856Z,27.10
2023-01-21T08:55:04.147Z,27.10
2023-01-21T08:57:32.987Z,27.00
2023-01-21T09:00:02.407Z,27.10
2023-01-21T09:02:30.626Z,27.10
2023-01-21T09:04:59.889Z,27.10
2023-01-21T09:07:27.465Z,27.10
2023-01-21T09:09:55.056Z,27.10
2023-01-21T09:12:22.571Z,27.10
2023-01-21T09:14:50.089Z,27.20
2023-01-21T09:17:17.820Z,27.20
2023-01-21T09:19:45.460Z,27.20
2023-01-21T09:22:16.996Z,27.20
2023-01-21T09:24:47.038Z,27.20
2023-01-21T09:27:15.683Z,27.20
2023-01-21T09:29:43.363Z,27.10
2023-01-21T09:32:14.215Z,27.10
2023-01-21T09:34:41.747Z,27.10
2023-01-21T09:37:09.663Z,27.10
2023-01-21T09:39:37.433Z,27.10
2023-01-21T09:42:06.635Z,27.00
2023-01-21T09:44:44.987Z,27.00
2023-01-21T09:47:14.449Z,27.00
2023-01-21T09:49:48.860Z,27.00
2023-01-21T09:52:30.744Z,26.90
2023-01-21T09:55:00.014Z,26.90
2023-01-21T09:57:34.175Z,26.90
2023-01-21T10:00:20.618Z,26.80
2023-01-21T10:03:01.725Z,26.80
2023-01-21T10:05:31.872Z,26.80
2023-01-21T10:08:18.493Z,26.70
2023-01-21T10:10:53.401Z,26.70
2023-01-21T10:13:20.938Z,26.70
2023-01-21T10:16:01.279Z,26.70
2023-01-21T10:18:31.953Z,26.60
2023-01-21T10:21:05.384Z,26.60
2023-01-21T10:23:43.864Z,26.50
2023-01-21T10:26:13.146Z,26.50
2023-01-21T10:28:48.002Z,26.50
2023-01-21T10:31:30.763Z,26.50
2023-01-21T10:33:58.515Z,26.50
2023-01-21T10:36:25.980Z,26.50
2023-01-21T10:39:05.670Z,26.50
2023-01-21T10:41:48.238Z,26.50
2023-01-21T10:44:34.401Z,26.50
2023-01-21T10:47:11.982Z,26.40
2023-01-21T10:49:58.207Z,26.40
2023-01-21T10:52:42.265Z,26.30
2023-01-21T10:55:24.741Z,26.20
2023-01-21T10:58:01.874Z,26.20
2023-01-21T11:00:40.712Z,26.10
2023-01-21T11:03:14.301Z,26.10
2023-01-21T11:05:42.753Z,26.00
2023-01-21T11:08:15.131Z,25.90
2023-01-21T11:10:42.673Z,25.90
2023-01-21T11:13:13.232Z,25.80
2023-01-21T11:15:45.087Z,25.70
2023-01-21T11:18:30.958Z,25.60
2023-01-21T11:21:00.616Z,25.60
2023-01-21T11:23:32.520Z,25.50
2023-01-21T11:26:10.183Z,25.40
2023-01-21T11:28:37.960Z,25.40
2023-01-21T11:31:11.706Z,25.30
2023-01-21T11:33:40.023Z,25.20
2023-01-21T11:36:19.610Z,25.10
2023-01-21T11:39:03.198Z,25.00
2023-01-21T11:41:31.004Z,25.00
2023-01-21T11:44:16.915Z,24.90
2023-01-21T11:46:45.709Z,24.80
2023-01-21T11:49:21.533Z,24.80
2023-01-21T11:51:49.062Z,24.70
2023-01-21T11:54:17.314Z,24.60
2023-01-21T11:57:17.104Z,24.60
2023-01-21T11:59:47.016Z,24.50
2023-01-21T12:02:14.462Z,24.50
2023-01-21T12:05:12.151Z,24.50
2023-01-21T12:07:41.568Z,24.50
2023-01-21T12:10:20.667Z,24.50
2023-01-21T12:12:51.261Z,24.40
2023-01-21T12:15:24.650Z,24.30
2023-01-21T12:18:07.426Z,24.30
2023-01-21T12:20:43.381Z,24.20
2023-01-21T12:23:29.840Z,24.20
2023-01-21T12:26:15.669Z,24.10
2023-01-21T12:29:01.622Z,24.10
2023-01-21T12:31:33.112Z,24.10
2023-01-21T12:34:03.667Z,24.10
2023-01-21T12:36:34.685Z,24.10
2023-01-21T12:39:14.501Z,24.10
2023-01-21T12:41:44.778Z,24.10
2023-01-21T12:44:27.497Z,24.10
2023-01-21T12:46:56.937Z,24.10
2023-01-21T12:49:45.243Z,24.10
2023-01-21T12:52:19.594Z,24.20
2023-01-21T12:54:51.235Z,24.20
2023-01-21T12:57:28.450Z,24.10
2023-01-21T12:59:58.587Z,24.10
2023-01-21T13:02:41.506Z,24.10
2023-01-21T13:05:35.594Z,24.00
2023-01-21T13:08:19.020Z,24.00
2023-01-21T13:10:49.513Z,23.90
2023-01-21T13:13:24.050Z,23.90
2023-01-21T13:15:54.345Z,23.80
2023-01-21T13:18:24.931Z,23.80
2023-01-21T13:20:54.267Z,23.70
2023-01-21T13:23:40.284Z,23.70
2023-01-21T13:26:16.542Z,23.60
2023-01-21T13:28:51.189Z,23.50
2023-01-21T13:31:32.883Z,23.50
2023-01-21T13:34:03.520Z,23.40
2023-01-21T13:36:40.169Z,23.30
2023-01-21T13:39:27.072Z,23.30
2023-01-21T13:41:54.589Z,23.20
2023-01-21T13:44:28.168Z,23.20
2023-01-21T13:47:14.091Z,23.10
2023-01-21T13:49:44.881Z,23.00
2023-01-21T13:52:18.826Z,22.90
2023-01-21T13:54:52.738Z,22.80
2023-01-21T13:57:23.337Z,22.80
2023-01-21T13:59:59.418Z,22.70
2023-01-21T14:02:29.800Z,22.70
2023-01-21T14:05:16.829Z,22.60
2023-01-21T14:07:47.417Z,22.60
2023-01-21T14:10:26.052Z,22.50
2023-01-21T14:12:53.570Z,22.50
2023-01-21T14:15:36.737Z,22.50
2023-01-21T14:18:20.282Z,22.40
2023-01-21T14:21:02.838Z,22.40
2023-01-21T14:23:47.350Z,22.40
2023-01-21T14:26:33.386Z,22.40
2023-01-21T14:29:10.054Z,22.30
2023-01-21T14:31:40.852Z,22.20
2023-01-21T14:34:14.643Z,22.20
2023-01-21T14:36:54.598Z,22.10
2023-01-21T14:39:35.606Z,22.00
2023-01-21T14:42:09.381Z,22.00
2023-01-21T14:44:40.763Z,21.90
2023-01-21T14:47:19.095Z,21.80
2023-01-21T14:49:49.248Z,21.80
2023-01-21T14:52:21.150Z,21.80
2023-01-21T14:54:49.190Z,21.70
2023-01-21T14:57:28.822Z,21.70
2023-01-21T15:00:03.592Z,21.60
2023-01-21T15:02:33.182Z,21.60
2023-01-21T15:05:01.489Z,21.60
2023-01-21T15:07:31.929Z,21.50
2023-01-21T15:10:02.052Z,21.50
2023-01-21T15:12:32.001Z,21.50
2023-01-21T15:15:00.609Z,21.50
2023-01-21T15:17:43.486Z,21.40
2023-01-21T15:20:29.306Z,21.40
2023-01-21T15:23:15.424Z,21.40
2023-01-21T15:26:03.003Z,21.40
2023-01-21T15:28:41.310Z,21.40
2023-01-21T15:31:10.888Z,21.30
2023-01-21T15:33:49.280Z,21.20
2023-01-21T15:36:20.820Z,21.20
2023-01-21T15:38:48.918Z,21.10
2023-01-21T15:41:24.960Z,21.10
2023-01-21T15:43:58.741Z,21.10
2023-01-21T15:46:45.249Z,21.00
2023-01-21T15:49:19.803Z,21.00
2023-01-21T15:51:50.336Z,21.00
2023-01-21T15:54:20.839Z,20.90
2023-01-21T15:56:55.717Z,20.90
2023-01-21T15:59:29.343Z,20.90
2023-01-21T16:02:03.061Z,20.80
2023-01-21T16:04:43.265Z,20.80
2023-01-21T16:07:11.594Z,20.80
2023-01-21T16:10:01.680Z,20.70
2023-01-21T16:12:52.112Z,20.70
2023-01-21T16:15:29.048Z,20.60
2023-01-21T16:18:11.983Z,20.60
2023-01-21T16:20:43.244Z,20.60
2023-01-21T16:23:10.853Z,20.60
2023-01-21T16:25:45.675Z,20.50
2023-01-21T16:28:13.499Z,20.50
2023-01-21T16:30:41.127Z,20.50
2023-01-21T16:33:09.425Z,20.50
2023-01-21T16:35:47.515Z,20.40
2023-01-21T16:38:21.775Z,20.40
2023-01-21T16:40:50.583Z,20.40
2023-01-21T16:43:23.560Z,20.40
2023-01-21T16:45:55.636Z,20.40
2023-01-21T16:48:25.173Z,20.40
2023-01-21T16:50:53.030Z,20.30
2023-01-21T16:53:21.485Z,20.30
2023-01-21T16:55:50.916Z,20.30
2023-01-21T16:58:24.300Z,20.20
2023-01-21T17:00:59.688Z,20.20
2023-01-21T17:03:30.835Z,20.20
2023-01-21T17:06:00.396Z,20.20
2023-01-21T17:08:28.324Z,20.10
2023-01-21T17:10:58.984Z,20.10
2023-01-21T17:13:27.099Z,20.10
2023-01-21T17:15:59.261Z,20.10
2023-01-21T17:18:40.147Z,20.10
2023-01-21T17:21:10.214Z,20.10
2023-01-21T17:23:42.336Z,20.10
2023-01-21T17:26:16.043Z,20.10
2023-01-21T17:28:47.516Z,20.10
2023-01-21T17:31:15.039Z,20.20
2023-01-21T17:33:43.436Z,20.10
2023-01-21T17:36:15.841Z,20.10
2023-01-21T17:38:45.308Z,20.10
2023-01-21T17:41:29.625Z,20.10
2023-01-21T17:43:57.228Z,20.10
2023-01-21T17:46:25.830Z,20.10
2023-01-21T17:49:13.516Z,20.20
2023-01-21T17:51:43.076Z,20.20
2023-01-21T17:54:22.075Z,20.20
2023-01-21T17:56:53.551Z,20.20
2023-01-21T17:59:38.676Z,20.20
2023-01-21T18:02:09.998Z,20.10
2023-01-21T18:04:37.518Z,20.10
2023-01-21T18:07:11.953Z,20.10
2023-01-21T18:09:39.751Z,20.00
2023-01-21T18:12:08.044Z,20.00
2023-01-21T18:14:35.490Z,19.90
2023-01-21T18:17:04.502Z,19.90
2023-01-21T18:19:33.752Z,19.80
2023-01-21T18:22:02.031Z,19.80
2023-01-21T18:24:31.773Z,19.80
2023-01-21T18:27:02.489Z,19.70
2023-01-21T18:29:31.285Z,19.60
2023-01-21T18:31:59.209Z,19.60
2023-01-21T18:34:26.808Z,19.50
2023-01-21T18:36:57.917Z,19.50
2023-01-21T18:39:25.483Z,19.50
2023-01-21T18:41:54.200Z,19.50
2023-01-21T18:44:21.835Z,19.50
2023-01-21T18:46:49.670Z,19.50
2023-01-21T18:49:19.207Z,19.50
2023-01-21T18:51:48.174Z,19.50
2023-01-21T18:54:16.589Z,19.50
2023-01-21T18:56:44.704Z,19.50
2023-01-21T18:59:19.330Z,19.50
2023-01-21T19:01:46.931Z,19.50
2023-01-21T19:04:19.285Z,19.50
2023-01-21T19:06:47.135Z,19.50
2023-01-21T19:09:24.647Z,19.50
2023-01-21T19:11:52.555Z,19.40
2023-01-21T19:14:20.937Z,19.40
2023-01-21T19:16:48.507Z,19.40
2023-01-21T19:19:19.471Z,19.40
2023-01-21T19:21:47.076Z,19.40
2023-01-21T19:24:14.872Z,19.40
2023-01-21T19:26:42.577Z,19.40
2023-01-21T19:29:16.804Z,19.30
2023-01-21T19:31:44.484Z,19.30
2023-01-21T19:34:12.070Z,19.20
2023-01-21T19:36:40.813Z,19.20
2023-01-21T19:39:16.282Z,19.20
2023-01-21T19:41:43.994Z,19.10
2023-01-21T19:44:11.559Z,19.10
2023-01-21T19:46:39.237Z,19.00
2023-01-21T19:49:14.229Z,19.00
2023-01-21T19:51:42.349Z,19.00
2023-01-21T19:54:09.919Z,18.90
2023-01-21T19:56:38.183Z,18.90
2023-01-21T19:59:05.792Z,19.00
2023-01-21T20:01:33.423Z,19.00
2023-01-21T20:04:01.231Z,18.90
2023-01-21T20:06:36.133Z,18.90
2023-01-21T20:09:04.240Z,18.80
2023-01-21T20:11:31.811Z,18.80
2023-01-21T20:14:00.302Z,18.90
2023-01-21T20:16:27.903Z,18.80
2023-01-21T20:18:56.477Z,18.80
2023-01-21T20:21:25.439Z,18.80
2023-01-21T20:23:53.092Z,18.80
2023-01-21T20:26:26.381Z,18.70
2023-01-21T20:28:54.841Z,18.70
2023-01-21T20:31:22.484Z,18.70
2023-01-21T20:33:50.068Z,18.70
2023-01-21T20:36:19.705Z,18.70
2023-01-21T20:38:47.346Z,18.70
2023-01-21T20:41:14.893Z,18.60
2023-01-21T20:43:42.592Z,18.60
2023-01-21T20:46:16.289Z,18.60
2023-01-21T20:48:44.586Z,18.60
2023-01-21T20:51:12.533Z,18.60
2023-01-21T20:53:40.054Z,18.50
2023-01-21T20:56:16.488Z,18.50
2023-01-21T20:58:46.361Z,18.50
2023-01-21T21:01:15.375Z,18.40
2023-01-21T21:03:42.997Z,18.40
2023-01-21T21:06:17.999Z,18.40
2023-01-21T21:08:45.556Z,18.40
2023-01-21T21:11:14.906Z,18.40
2023-01-21T21:13:43.100Z,18.40
2023-01-21T21:16:15.932Z,18.40
2023-01-21T21:18:43.509Z,18.40
2023-01-21T21:21:12.702Z,18.30
2023-01-21T21:23:40.325Z,18.30
2023-01-21T21:26:40.251Z,18.30
2023-01-21T21:29:10.965Z,18.20
2023-01-21T21:31:38.544Z,18.20
2023-01-21T21:34:06.814Z,18.10
2023-01-21T21:36:34.403Z,18.10
2023-01-21T21:39:01.975Z,18.10
2023-01-21T21:41:47.764Z,18.10
2023-01-21T21:44:15.258Z,18.00
2023-01-21T21:47:01.137Z,18.00
2023-01-21T21:49:29.577Z,18.00
2023-01-21T21:51:57.414Z,18.00
2023-01-21T21:54:25.796Z,18.00
2023-01-21T21:56:54.089Z,18.00
2023-01-21T21:59:22.368Z,18.00
2023-01-21T22:01:49.950Z,18.00
2023-01-21T22:04:18.286Z,18.00
2023-01-21T22:06:45.884Z,18.00
2023-01-21T22:09:13.624Z,17.90
2023-01-21T22:11:41.140Z,17.90
2023-01-21T22:14:08.805Z,17.90
2023-01-21T22:16:36.615Z,17.90
2023-01-21T22:19:04.164Z,17.90
2023-01-21T22:21:33.201Z,17.90
2023-01-21T22:24:01.514Z,17.90
2023-01-21T22:26:29.995Z,17.90
2023-01-21T22:28:57.670Z,17.90
2023-01-21T22:31:26.583Z,17.80
2023-01-21T22:33:54.245Z,17.80
2023-01-21T22:36:23.209Z,17.80
2023-01-21T22:38:51.103Z,17.80
2023-01-21T22:41:19.995Z,17.70
2023-01-21T22:43:50.661Z,17.70
2023-01-21T22:46:19.371Z,17.70
2023-01-21T22:48:47.141Z,17.60
2023-01-21T22:51:15.947Z,17.60
2023-01-21T22:53:46.193Z,17.60
2023-01-21T22:56:16.577Z,17.60
2023-01-21T22:58:44.165Z,17.50
2023-01-21T23:01:41.468Z,17.50
2023-01-21T23:04:09.029Z,17.40
2023-01-21T23:06:37.804Z,17.40
2023-01-21T23:09:08.150Z,17.40
2023-01-21T23:11:38.739Z,17.40
2023-01-21T23:14:07.370Z,17.40
2023-01-21T23:16:34.868Z,17.30
2023-01-21T23:19:02.703Z,17.30
2023-01-21T23:21:30.213Z,17.30
2023-01-21T23:23:58.509Z,17.30
2023-01-21T23:26:26.934Z,17.30
2023-01-21T23:28:56.980Z,17.30
2023-01-21T23:31:24.891Z,17.30
2023-01-21T23:33:53.280Z,17.40
2023-01-21T23:36:20.819Z,17.30
2023-01-21T23:38:48.558Z,17.30
2023-01-21T23:41:21.954Z,17.30
2023-01-21T23:43:49.539Z,17.30
2023-01-21T23:46:20.436Z,17.30
2023-01-21T23:48:48.841Z,17.30
2023-01-21T23:51:17.061Z,17.30
2023-01-21T23:53:45.029Z,17.40
2023-01-21T23:56:21.383Z,17.40
2023-01-21T23:58:49.066Z,17.40
